sensor_id;sensor_type;location;lat;lon;timestamp;pressure;altitude;pressure_sealevel;temperature;humidity
63006;BME280;53704;52.532;6.426;2023-05-24T00:01:12;102399.13;;;7.72;100.00
63006;BME280;53704;52.532;6.426;2023-05-24T00:03:38;102389.47;;;7.56;100.00
63006;BME280;53704;52.532;6.426;2023-05-24T00:06:04;102394.72;;;7.45;100.00
63006;BME280;53704;52.532;6.426;2023-05-24T00:08:34;102387.31;;;7.61;100.00
63006;BME280;53704;52.532;6.426;2023-05-24T00:11:00;102389.94;;;7.10;100.00
63006;BME280;53704;52.532;6.426;2023-05-24T00:13:25;102388.88;;;7.25;100.00
63006;BME280;53704;52.532;6.426;2023-05-24T00:15:51;102381.84;;;7.37;100.00
63006;BME280;53704;52.532;6.426;2023-05-24T00:18:16;102387.28;;;7.23;100.00
63006;BME280;53704;52.532;6.426;2023-05-24T00:20:43;102381.94;;;7.23;100.00
63006;BME280;53704;52.532;6.426;2023-05-24T00:23:08;102383.00;;;7.46;100.00
63006;BME280;53704;52.532;6.426;2023-05-24T00:25:34;102383.47;;;7.53;100.00
63006;BME280;53704;52.532;6.426;2023-05-24T00:28:00;102376.59;;;7.49;100.00
63006;BME280;53704;52.532;6.426;2023-05-24T00:30:25;102376.38;;;7.39;100.00
63006;BME280;53704;52.532;6.426;2023-05-24T00:32:51;102377.88;;;7.43;100.00
63006;BME280;53704;52.532;6.426;2023-05-24T00:35:16;102384.94;;;7.31;100.00
63006;BME280;53704;52.532;6.426;2023-05-24T00:37:41;102377.66;;;7.46;100.00
63006;BME280;53704;52.532;6.426;2023-05-24T00:40:10;102373.69;;;7.39;100.00
63006;BME280;53704;52.532;6.426;2023-05-24T00:42:35;102372.69;;;7.27;100.00
63006;BME280;53704;52.532;6.426;2023-05-24T00:45:01;102375.41;;;7.40;100.00
63006;BME280;53704;52.532;6.426;2023-05-24T00:47:26;102381.84;;;7.37;100.00
63006;BME280;53704;52.532;6.426;2023-05-24T00:49:51;102376.72;;;7.47;100.00
63006;BME280;53704;52.532;6.426;2023-05-24T00:52:28;102375.06;;;7.32;100.00
63006;BME280;53704;52.532;6.426;2023-05-24T00:54:56;102368.44;;;7.37;100.00
63006;BME280;53704;52.532;6.426;2023-05-24T00:57:22;102382.03;;;7.21;100.00
63006;BME280;53704;52.532;6.426;2023-05-24T00:59:49;102379.56;;;7.31;100.00
63006;BME280;53704;52.532;6.426;2023-05-24T01:02:15;102373.69;;;7.39;100.00
63006;BME280;53704;52.532;6.426;2023-05-24T01:04:41;102381.22;;;7.47;100.00
63006;BME280;53704;52.532;6.426;2023-05-24T01:15:08;102381.13;;;7.08;100.00
63006;BME280;53704;52.532;6.426;2023-05-24T01:18:03;102382.09;;;7.07;100.00
63006;BME280;53704;52.532;6.426;2023-05-24T01:20:31;102383.59;;;7.11;100.00
63006;BME280;53704;52.532;6.426;2023-05-24T01:26:18;102380.31;;;7.20;100.00
63006;BME280;53704;52.532;6.426;2023-05-24T01:28:46;102379.91;;;7.39;100.00
63006;BME280;53704;52.532;6.426;2023-05-24T01:31:14;102377.44;;;7.49;100.00
63006;BME280;53704;52.532;6.426;2023-05-24T01:33:43;102378.44;;;7.48;100.00
63006;BME280;53704;52.532;6.426;2023-05-24T01:36:09;102379.59;;;7.44;100.00
63006;BME280;53704;52.532;6.426;2023-05-24T01:38:35;102375.50;;;7.38;100.00
63006;BME280;53704;52.532;6.426;2023-05-24T01:41:07;102376.91;;;7.31;100.00
63006;BME280;53704;52.532;6.426;2023-05-24T01:43:42;102371.00;;;7.26;100.00
63006;BME280;53704;52.532;6.426;2023-05-24T01:46:21;102370.13;;;7.38;100.00
63006;BME280;53704;52.532;6.426;2023-05-24T01:49:05;102365.75;;;7.24;100.00
63006;BME280;53704;52.532;6.426;2023-05-24T01:51:38;102363.81;;;7.27;100.00
63006;BME280;53704;52.532;6.426;2023-05-24T01:54:05;102368.88;;;7.44;100.00
63006;BME280;53704;52.532;6.426;2023-05-24T01:56:33;102354.06;;;7.25;100.00
63006;BME280;53704;52.532;6.426;2023-05-24T01:58:58;102356.44;;;7.43;100.00
63006;BME280;53704;52.532;6.426;2023-05-24T02:01:25;102359.88;;;7.45;100.00
63006;BME280;53704;52.532;6.426;2023-05-24T02:03:51;102345.81;;;7.29;100.00
63006;BME280;53704;52.532;6.426;2023-05-24T02:06:16;102357.84;;;7.36;100.00
63006;BME280;53704;52.532;6.426;2023-05-24T02:08:42;102350.00;;;7.46;100.00
63006;BME280;53704;52.532;6.426;2023-05-24T02:11:07;102351.72;;;7.34;100.00
63006;BME280;53704;52.532;6.426;2023-05-24T02:13:33;102346.31;;;7.21;100.00
63006;BME280;53704;52.532;6.426;2023-05-24T02:15:58;102348.72;;;7.38;100.00
63006;BME280;53704;52.532;6.426;2023-05-24T02:18:23;102352.91;;;7.42;100.00
63006;BME280;53704;52.532;6.426;2023-05-24T02:20:49;102343.47;;;7.37;100.00
63006;BME280;53704;52.532;6.426;2023-05-24T02:23:15;102342.28;;;7.41;100.00
63006;BME280;53704;52.532;6.426;2023-05-24T02:25:40;102339.28;;;7.33;100.00
63006;BME280;53704;52.532;6.426;2023-05-24T02:28:05;102331.88;;;7.23;100.00
63006;BME280;53704;52.532;6.426;2023-05-24T02:30:31;102340.75;;;7.24;100.00
63006;BME280;53704;52.532;6.426;2023-05-24T02:32:56;102335.06;;;7.03;100.00
63006;BME280;53704;52.532;6.426;2023-05-24T02:35:22;102325.97;;;7.05;100.00
63006;BME280;53704;52.532;6.426;2023-05-24T02:37:47;102329.38;;;6.95;100.00
63006;BME280;53704;52.532;6.426;2023-05-24T02:40:13;102326.06;;;7.04;100.00
63006;BME280;53704;52.532;6.426;2023-05-24T02:42:38;102329.28;;;7.09;100.00
63006;BME280;53704;52.532;6.426;2023-05-24T02:45:04;102336.31;;;6.97;100.00
63006;BME280;53704;52.532;6.426;2023-05-24T02:47:29;102337.38;;;6.82;100.00
63006;BME280;53704;52.532;6.426;2023-05-24T02:49:55;102343.69;;;6.94;100.00
63006;BME280;53704;52.532;6.426;2023-05-24T02:52:21;102339.97;;;6.96;100.00
63006;BME280;53704;52.532;6.426;2023-05-24T02:54:48;102332.47;;;7.01;100.00
63006;BME280;53704;52.532;6.426;2023-05-24T02:57:14;102339.91;;;7.23;100.00
63006;BME280;53704;52.532;6.426;2023-05-24T02:59:39;102340.94;;;7.08;100.00
63006;BME280;53704;52.532;6.426;2023-05-24T03:02:05;102334.09;;;7.04;100.00
63006;BME280;53704;52.532;6.426;2023-05-24T03:04:30;102327.25;;;7.13;100.00
63006;BME280;53704;52.532;6.426;2023-05-24T03:06:55;102337.97;;;7.13;100.00
63006;BME280;53704;52.532;6.426;2023-05-24T03:09:21;102337.19;;;6.98;100.00
63006;BME280;53704;52.532;6.426;2023-05-24T03:11:46;102329.81;;;7.14;100.00
63006;BME280;53704;52.532;6.426;2023-05-24T03:14:12;102330.66;;;7.02;100.00
63006;BME280;53704;52.532;6.426;2023-05-24T03:16:37;102332.06;;;7.07;100.00
63006;BME280;53704;52.532;6.426;2023-05-24T03:19:04;102331.22;;;7.07;100.00
63006;BME280;53704;52.532;6.426;2023-05-24T03:21:30;102333.25;;;7.16;100.00
63006;BME280;53704;52.532;6.426;2023-05-24T03:23:56;102327.97;;;7.02;100.00
63006;BME280;53704;52.532;6.426;2023-05-24T03:26:22;102331.31;;;7.05;100.00
63006;BME280;53704;52.532;6.426;2023-05-24T03:28:47;102337.56;;;6.79;100.00
63006;BME280;53704;52.532;6.426;2023-05-24T03:31:14;102332.59;;;7.00;100.00
63006;BME280;53704;52.532;6.426;2023-05-24T03:33:40;102329.91;;;7.00;100.00
63006;BME280;53704;52.532;6.426;2023-05-24T03:36:06;102333.91;;;6.80;100.00
63006;BME280;53704;52.532;6.426;2023-05-24T03:38:31;102339.03;;;6.70;100.00
63006;BME280;53704;52.532;6.426;2023-05-24T03:40:58;102335.22;;;6.87;100.00
63006;BME280;53704;52.532;6.426;2023-05-24T03:43:24;102350.16;;;6.77;100.00
63006;BME280;53704;52.532;6.426;2023-05-24T03:45:49;102339.06;;;6.83;100.00
63006;BME280;53704;52.532;6.426;2023-05-24T03:48:15;102344.81;;;6.77;100.00
63006;BME280;53704;52.532;6.426;2023-05-24T03:50:40;102343.97;;;6.76;100.00
63006;BME280;53704;52.532;6.426;2023-05-24T03:53:06;102340.78;;;6.84;100.00
63006;BME280;53704;52.532;6.426;2023-05-24T03:55:31;102342.41;;;6.86;100.00
63006;BME280;53704;52.532;6.426;2023-05-24T03:57:57;102349.94;;;6.67;100.00
63006;BME280;53704;52.532;6.426;2023-05-24T04:00:22;102347.34;;;6.65;100.00
63006;BME280;53704;52.532;6.426;2023-05-24T04:02:48;102345.34;;;6.69;100.00
63006;BME280;53704;52.532;6.426;2023-05-24T04:05:13;102356.44;;;6.90;100.00
63006;BME280;53704;52.532;6.426;2023-05-24T04:07:39;102349.13;;;6.79;100.00
63006;BME280;53704;52.532;6.426;2023-05-24T04:10:23;102345.59;;;6.79;100.00
63006;BME280;53704;52.532;6.426;2023-05-24T04:12:48;102349.47;;;6.87;100.00
63006;BME280;53704;52.532;6.426;2023-05-24T04:15:14;102359.22;;;6.88;100.00
63006;BME280;53704;52.532;6.426;2023-05-24T04:17:40;102356.53;;;6.88;100.00
63006;BME280;53704;52.532;6.426;2023-05-24T04:20:06;102354.91;;;6.86;100.00
63006;BME280;53704;52.532;6.426;2023-05-24T04:22:33;102349.88;;;6.81;100.00
63006;BME280;53704;52.532;6.426;2023-05-24T04:25:03;102348.63;;;6.87;100.00
63006;BME280;53704;52.532;6.426;2023-05-24T04:27:29;102351.69;;;6.81;100.00
63006;BME280;53704;52.532;6.426;2023-05-24T04:29:55;102352.72;;;6.93;100.00
63006;BME280;53704;52.532;6.426;2023-05-24T04:32:21;102353.88;;;6.88;100.00
63006;BME280;53704;52.532;6.426;2023-05-24T04:34:47;102349.97;;;7.07;100.00
63006;BME280;53704;52.532;6.426;2023-05-24T04:37:17;102352.56;;;7.21;100.00
63006;BME280;53704;52.532;6.426;2023-05-24T04:39:43;102346.31;;;7.08;100.00
63006;BME280;53704;52.532;6.426;2023-05-24T04:42:14;102344.19;;;7.13;100.00
63006;BME280;53704;52.532;6.426;2023-05-24T04:44:40;102338.47;;;7.05;100.00
63006;BME280;53704;52.532;6.426;2023-05-24T04:47:06;102346.88;;;7.13;100.00
63006;BME280;53704;52.532;6.426;2023-05-24T04:49:31;102341.44;;;7.28;100.00
63006;BME280;53704;52.532;6.426;2023-05-24T04:51:57;102338.94;;;7.12;100.00
63006;BME280;53704;52.532;6.426;2023-05-24T04:54:23;102349.38;;;7.29;100.00
63006;BME280;53704;52.532;6.426;2023-05-24T04:56:48;102347.53;;;7.30;100.00
63006;BME280;53704;52.532;6.426;2023-05-24T04:59:14;102352.25;;;7.39;100.00
63006;BME280;53704;52.532;6.426;2023-05-24T05:01:39;102357.00;;;7.48;100.00
63006;BME280;53704;52.532;6.426;2023-05-24T05:04:05;102356.78;;;7.51;100.00
63006;BME280;53704;52.532;6.426;2023-05-24T05:06:31;102358.06;;;7.58;100.00
63006;BME280;53704;52.532;6.426;2023-05-24T05:08:59;102354.53;;;7.71;100.00
63006;BME280;53704;52.532;6.426;2023-05-24T05:11:24;102352.69;;;7.58;100.00
63006;BME280;53704;52.532;6.426;2023-05-24T05:13:50;102358.25;;;7.55;100.00
63006;BME280;53704;52.532;6.426;2023-05-24T05:16:15;102352.38;;;7.50;100.00
63006;BME280;53704;52.532;6.426;2023-05-24T05:18:41;102360.09;;;7.42;100.00
63006;BME280;53704;52.532;6.426;2023-05-24T05:21:06;102344.44;;;7.36;100.00
63006;BME280;53704;52.532;6.426;2023-05-24T05:23:32;102355.25;;;7.47;100.00
63006;BME280;53704;52.532;6.426;2023-05-24T05:25:57;102355.91;;;7.51;100.00
63006;BME280;53704;52.532;6.426;2023-05-24T05:28:23;102360.84;;;7.70;100.00
63006;BME280;53704;52.532;6.426;2023-05-24T05:30:48;102364.59;;;7.80;100.00
63006;BME280;53704;52.532;6.426;2023-05-24T05:33:14;102381.44;;;7.56;100.00
63006;BME280;53704;52.532;6.426;2023-05-24T05:35:41;102367.63;;;7.63;100.00
63006;BME280;53704;52.532;6.426;2023-05-24T05:38:07;102373.41;;;7.69;100.00
63006;BME280;53704;52.532;6.426;2023-05-24T05:40:32;102377.91;;;7.69;100.00
63006;BME280;53704;52.532;6.426;2023-05-24T05:42:58;102380.47;;;7.83;100.00
63006;BME280;53704;52.532;6.426;2023-05-24T05:45:23;102377.03;;;7.94;100.00
63006;BME280;53704;52.532;6.426;2023-05-24T05:47:49;102375.72;;;8.00;100.00
63006;BME280;53704;52.532;6.426;2023-05-24T05:50:14;102391.19;;;8.09;100.00
63006;BME280;53704;52.532;6.426;2023-05-24T05:52:40;102376.56;;;8.26;100.00
63006;BME280;53704;52.532;6.426;2023-05-24T05:55:06;102379.13;;;8.27;100.00
63006;BME280;53704;52.532;6.426;2023-05-24T05:57:32;102380.38;;;8.34;100.00
63006;BME280;53704;52.532;6.426;2023-05-24T05:59:57;102378.47;;;8.37;100.00
63006;BME280;53704;52.532;6.426;2023-05-24T06:02:23;102385.13;;;8.44;100.00
63006;BME280;53704;52.532;6.426;2023-05-24T06:04:49;102389.09;;;8.51;100.00
63006;BME280;53704;52.532;6.426;2023-05-24T06:07:14;102391.41;;;8.68;100.00
63006;BME280;53704;52.532;6.426;2023-05-24T06:09:39;102379.44;;;8.73;100.00
63006;BME280;53704;52.532;6.426;2023-05-24T06:12:05;102381.06;;;8.75;100.00
63006;BME280;53704;52.532;6.426;2023-05-24T06:14:30;102383.59;;;9.01;100.00
63006;BME280;53704;52.532;6.426;2023-05-24T06:16:56;102386.53;;;8.98;100.00
63006;BME280;53704;52.532;6.426;2023-05-24T06:19:22;102386.13;;;8.91;100.00
63006;BME280;53704;52.532;6.426;2023-05-24T06:21:48;102384.00;;;9.08;100.00
63006;BME280;53704;52.532;6.426;2023-05-24T06:24:16;102389.25;;;9.33;100.00
63006;BME280;53704;52.532;6.426;2023-05-24T06:26:45;102391.31;;;9.05;100.00
63006;BME280;53704;52.532;6.426;2023-05-24T06:29:11;102388.78;;;9.15;100.00
63006;BME280;53704;52.532;6.426;2023-05-24T06:31:36;102388.19;;;9.12;100.00
63006;BME280;53704;52.532;6.426;2023-05-24T06:34:02;102393.69;;;9.21;100.00
63006;BME280;53704;52.532;6.426;2023-05-24T06:36:27;102389.28;;;9.56;100.00
63006;BME280;53704;52.532;6.426;2023-05-24T06:38:53;102387.56;;;9.55;100.00
63006;BME280;53704;52.532;6.426;2023-05-24T06:41:18;102392.22;;;9.64;100.00
63006;BME280;53704;52.532;6.426;2023-05-24T06:43:43;102393.97;;;9.76;100.00
63006;BME280;53704;52.532;6.426;2023-05-24T06:46:10;102384.66;;;9.69;100.00
63006;BME280;53704;52.532;6.426;2023-05-24T06:48:35;102389.19;;;9.69;100.00
63006;BME280;53704;52.532;6.426;2023-05-24T06:51:01;102382.84;;;9.81;100.00
63006;BME280;53704;52.532;6.426;2023-05-24T06:53:26;102382.00;;;10.03;100.00
63006;BME280;53704;52.532;6.426;2023-05-24T06:55:52;102385.19;;;10.31;100.00
63006;BME280;53704;52.532;6.426;2023-05-24T06:58:17;102393.03;;;10.00;100.00
63006;BME280;53704;52.532;6.426;2023-05-24T07:00:43;102385.94;;;10.22;100.00
63006;BME280;53704;52.532;6.426;2023-05-24T07:03:11;102388.75;;;10.43;100.00
63006;BME280;53704;52.532;6.426;2023-05-24T07:05:36;102400.22;;;10.56;100.00
63006;BME280;53704;52.532;6.426;2023-05-24T07:08:02;102401.84;;;10.47;100.00
63006;BME280;53704;52.532;6.426;2023-05-24T07:10:28;102402.06;;;10.56;100.00
63006;BME280;53704;52.532;6.426;2023-05-24T07:12:53;102407.09;;;10.49;100.00
63006;BME280;53704;52.532;6.426;2023-05-24T07:15:19;102401.91;;;10.68;100.00
63006;BME280;53704;52.532;6.426;2023-05-24T07:17:45;102400.19;;;10.79;100.00
63006;BME280;53704;52.532;6.426;2023-05-24T07:20:10;102399.75;;;10.95;100.00
63006;BME280;53704;52.532;6.426;2023-05-24T07:22:37;102403.06;;;10.98;100.00
63006;BME280;53704;52.532;6.426;2023-05-24T07:25:03;102402.56;;;11.26;100.00
63006;BME280;53704;52.532;6.426;2023-05-24T07:27:29;102405.06;;;11.17;100.00
63006;BME280;53704;52.532;6.426;2023-05-24T07:29:55;102400.06;;;11.13;100.00
63006;BME280;53704;52.532;6.426;2023-05-24T07:32:21;102411.34;;;11.39;100.00
63006;BME280;53704;52.532;6.426;2023-05-24T07:34:46;102400.81;;;11.57;100.00
63006;BME280;53704;52.532;6.426;2023-05-24T07:37:12;102397.50;;;11.74;100.00
63006;BME280;53704;52.532;6.426;2023-05-24T07:39:37;102392.28;;;11.94;100.00
63006;BME280;53704;52.532;6.426;2023-05-24T07:42:03;102395.28;;;11.58;100.00
63006;BME280;53704;52.532;6.426;2023-05-24T07:44:29;102399.97;;;11.56;100.00
63006;BME280;53704;52.532;6.426;2023-05-24T07:46:55;102395.88;;;11.83;100.00
63006;BME280;53704;52.532;6.426;2023-05-24T07:49:21;102397.25;;;11.99;100.00
63006;BME280;53704;52.532;6.426;2023-05-24T07:51:47;102393.72;;;12.08;100.00
63006;BME280;53704;52.532;6.426;2023-05-24T07:54:13;102397.28;;;12.49;100.00
63006;BME280;53704;52.532;6.426;2023-05-24T07:56:40;102402.91;;;12.26;100.00
63006;BME280;53704;52.532;6.426;2023-05-24T07:59:05;102401.75;;;12.19;100.00
63006;BME280;53704;52.532;6.426;2023-05-24T08:01:33;102392.31;;;12.04;100.00
63006;BME280;53704;52.532;6.426;2023-05-24T08:04:02;102393.28;;;12.34;100.00
63006;BME280;53704;52.532;6.426;2023-05-24T08:06:28;102403.31;;;12.62;100.00
63006;BME280;53704;52.532;6.426;2023-05-24T08:08:55;102393.47;;;12.52;100.00
63006;BME280;53704;52.532;6.426;2023-05-24T08:11:21;102404.78;;;12.86;100.00
63006;BME280;53704;52.532;6.426;2023-05-24T08:13:46;102391.97;;;12.98;100.00
63006;BME280;53704;52.532;6.426;2023-05-24T08:16:12;102389.41;;;13.06;100.00
63006;BME280;53704;52.532;6.426;2023-05-24T08:18:37;102395.66;;;13.26;100.00
63006;BME280;53704;52.532;6.426;2023-05-24T08:21:03;102402.66;;;13.38;100.00
63006;BME280;53704;52.532;6.426;2023-05-24T08:23:29;102390.13;;;13.37;100.00
63006;BME280;53704;52.532;6.426;2023-05-24T08:25:56;102386.94;;;13.71;100.00
63006;BME280;53704;52.532;6.426;2023-05-24T08:28:21;102390.75;;;13.88;100.00
63006;BME280;53704;52.532;6.426;2023-05-24T08:30:47;102383.94;;;14.12;100.00
63006;BME280;53704;52.532;6.426;2023-05-24T08:33:12;102389.41;;;14.02;100.00
63006;BME280;53704;52.532;6.426;2023-05-24T08:35:38;102395.88;;;13.82;100.00
63006;BME280;53704;52.532;6.426;2023-05-24T08:38:03;102404.25;;;13.98;100.00
63006;BME280;53704;52.532;6.426;2023-05-24T08:40:29;102394.91;;;13.83;100.00
63006;BME280;53704;52.532;6.426;2023-05-24T08:42:54;102402.88;;;14.22;100.00
63006;BME280;53704;52.532;6.426;2023-05-24T08:45:25;102408.47;;;13.73;100.00
63006;BME280;53704;52.532;6.426;2023-05-24T08:47:51;102398.53;;;13.44;100.00
63006;BME280;53704;52.532;6.426;2023-05-24T08:50:16;102406.75;;;13.23;100.00
63006;BME280;53704;52.532;6.426;2023-05-24T08:52:43;102405.63;;;13.06;100.00
63006;BME280;53704;52.532;6.426;2023-05-24T08:55:10;102394.97;;;13.44;100.00
63006;BME280;53704;52.532;6.426;2023-05-24T08:57:36;102388.81;;;13.61;100.00
63006;BME280;53704;52.532;6.426;2023-05-24T09:00:08;102382.25;;;13.64;100.00
63006;BME280;53704;52.532;6.426;2023-05-24T09:02:37;102387.13;;;14.35;100.00
63006;BME280;53704;52.532;6.426;2023-05-24T09:05:04;102396.53;;;14.03;100.00
63006;BME280;53704;52.532;6.426;2023-05-24T09:07:33;102384.13;;;14.10;100.00
63006;BME280;53704;52.532;6.426;2023-05-24T09:10:06;102393.28;;;14.00;100.00
63006;BME280;53704;52.532;6.426;2023-05-24T09:12:32;102389.84;;;14.07;100.00
63006;BME280;53704;52.532;6.426;2023-05-24T09:14:58;102391.66;;;14.07;100.00
63006;BME280;53704;52.532;6.426;2023-05-24T09:17:24;102383.19;;;14.75;100.00
63006;BME280;53704;52.532;6.426;2023-05-24T09:19:51;102390.03;;;14.79;100.00
63006;BME280;53704;52.532;6.426;2023-05-24T09:22:17;102397.38;;;14.69;100.00
63006;BME280;53704;52.532;6.426;2023-05-24T09:24:57;102387.63;;;14.76;100.00
63006;BME280;53704;52.532;6.426;2023-05-24T09:27:24;102393.50;;;14.72;100.00
63006;BME280;53704;52.532;6.426;2023-05-24T09:29:49;102395.81;;;14.67;100.00
63006;BME280;53704;52.532;6.426;2023-05-24T09:32:18;102400.31;;;14.76;100.00
63006;BME280;53704;52.532;6.426;2023-05-24T09:34:46;102403.50;;;14.89;100.00
63006;BME280;53704;52.532;6.426;2023-05-24T09:37:16;102395.97;;;14.65;100.00
63006;BME280;53704;52.532;6.426;2023-05-24T09:39:45;102394.66;;;15.05;100.00
63006;BME280;53704;52.532;6.426;2023-05-24T09:42:21;102394.81;;;15.40;100.00
63006;BME280;53704;52.532;6.426;2023-05-24T09:45:06;102399.19;;;14.96;96.49
63006;BME280;53704;52.532;6.426;2023-05-24T09:47:35;102398.22;;;15.24;99.28
63006;BME280;53704;52.532;6.426;2023-05-24T09:50:01;102403.88;;;14.76;92.37
63006;BME280;53704;52.532;6.426;2023-05-24T09:52:27;102395.28;;;14.63;97.36
63006;BME280;53704;52.532;6.426;2023-05-24T09:54:53;102398.97;;;14.62;99.61
63006;BME280;53704;52.532;6.426;2023-05-24T09:57:18;102386.13;;;14.64;100.00
63006;BME280;53704;52.532;6.426;2023-05-24T09:59:48;102380.72;;;14.54;100.00
63006;BME280;53704;52.532;6.426;2023-05-24T10:02:15;102386.00;;;14.56;100.00
63006;BME280;53704;52.532;6.426;2023-05-24T10:04:42;102380.91;;;14.25;100.00
63006;BME280;53704;52.532;6.426;2023-05-24T10:07:08;102385.22;;;14.45;99.21
63006;BME280;53704;52.532;6.426;2023-05-24T10:09:36;102369.56;;;15.03;97.49
63006;BME280;53704;52.532;6.426;2023-05-24T10:12:03;102386.38;;;15.07;97.84
63006;BME280;53704;52.532;6.426;2023-05-24T10:14:37;102391.72;;;14.98;92.31
63006;BME280;53704;52.532;6.426;2023-05-24T10:17:03;102385.63;;;14.96;91.11
63006;BME280;53704;52.532;6.426;2023-05-24T10:19:33;102386.69;;;14.58;88.84
63006;BME280;53704;52.532;6.426;2023-05-24T10:22:00;102385.91;;;15.11;87.98
63006;BME280;53704;52.532;6.426;2023-05-24T10:24:32;102388.31;;;15.77;85.44
63006;BME280;53704;52.532;6.426;2023-05-24T10:27:03;102373.53;;;16.40;84.16
63006;BME280;53704;52.532;6.426;2023-05-24T10:29:53;102388.38;;;15.85;86.19
63006;BME280;53704;52.532;6.426;2023-05-24T10:32:23;102383.38;;;15.54;91.73
63006;BME280;53704;52.532;6.426;2023-05-24T10:34:56;102374.13;;;15.65;90.82
63006;BME280;53704;52.532;6.426;2023-05-24T10:37:23;102377.38;;;15.24;89.38
63006;BME280;53704;52.532;6.426;2023-05-24T10:39:50;102375.69;;;15.94;87.17
63006;BME280;53704;52.532;6.426;2023-05-24T10:42:16;102377.72;;;16.93;84.84
63006;BME280;53704;52.532;6.426;2023-05-24T10:44:42;102390.19;;;16.53;79.13
63006;BME280;53704;52.532;6.426;2023-05-24T10:47:08;102390.34;;;16.09;79.31
63006;BME280;53704;52.532;6.426;2023-05-24T10:49:35;102379.72;;;16.24;81.60
63006;BME280;53704;52.532;6.426;2023-05-24T10:52:09;102384.72;;;15.76;83.60
63006;BME280;53704;52.532;6.426;2023-05-24T10:54:34;102386.78;;;16.00;85.40
63006;BME280;53704;52.532;6.426;2023-05-24T10:57:01;102383.69;;;16.38;85.50
63006;BME280;53704;52.532;6.426;2023-05-24T10:59:35;102390.06;;;16.63;76.75
63006;BME280;53704;52.532;6.426;2023-05-24T11:02:09;102377.56;;;16.36;73.36
63006;BME280;53704;52.532;6.426;2023-05-24T11:04:45;102374.22;;;16.58;74.08
63006;BME280;53704;52.532;6.426;2023-05-24T11:07:13;102370.72;;;16.82;72.45
63006;BME280;53704;52.532;6.426;2023-05-24T11:09:39;102358.19;;;17.31;72.22
63006;BME280;53704;52.532;6.426;2023-05-24T11:12:16;102374.47;;;16.73;71.36
63006;BME280;53704;52.532;6.426;2023-05-24T11:14:50;102372.66;;;16.39;77.82
63006;BME280;53704;52.532;6.426;2023-05-24T11:17:19;102363.25;;;17.67;80.09
63006;BME280;53704;52.532;6.426;2023-05-24T11:19:47;102369.75;;;17.25;78.83
63006;BME280;53704;52.532;6.426;2023-05-24T11:22:14;102383.16;;;16.34;78.57
63006;BME280;53704;52.532;6.426;2023-05-24T11:24:40;102375.28;;;16.66;78.78
63006;BME280;53704;52.532;6.426;2023-05-24T11:27:06;102376.34;;;16.30;79.69
63006;BME280;53704;52.532;6.426;2023-05-24T11:29:39;102364.47;;;17.23;82.23
63006;BME280;53704;52.532;6.426;2023-05-24T11:32:05;102373.06;;;16.61;83.55
63006;BME280;53704;52.532;6.426;2023-05-24T11:34:32;102382.72;;;16.55;87.22
63006;BME280;53704;52.532;6.426;2023-05-24T11:36:59;102375.44;;;15.79;84.82
63006;BME280;53704;52.532;6.426;2023-05-24T11:39:29;102378.00;;;16.15;84.56
63006;BME280;53704;52.532;6.426;2023-05-24T11:41:55;102383.88;;;17.04;80.78
63006;BME280;53704;52.532;6.426;2023-05-24T11:44:21;102383.19;;;16.00;82.74
63006;BME280;53704;52.532;6.426;2023-05-24T11:46:46;102379.16;;;16.12;85.99
63006;BME280;53704;52.532;6.426;2023-05-24T11:49:14;102385.03;;;16.34;88.10
63006;BME280;53704;52.532;6.426;2023-05-24T11:51:40;102386.44;;;15.59;90.80
63006;BME280;53704;52.532;6.426;2023-05-24T11:54:06;102386.53;;;15.05;91.32
63006;BME280;53704;52.532;6.426;2023-05-24T11:56:31;102390.16;;;15.32;90.92
63006;BME280;53704;52.532;6.426;2023-05-24T11:59:16;102384.09;;;15.38;91.03
63006;BME280;53704;52.532;6.426;2023-05-24T12:01:43;102390.50;;;15.55;90.84
63006;BME280;53704;52.532;6.426;2023-05-24T12:04:09;102387.97;;;15.53;89.12
63006;BME280;53704;52.532;6.426;2023-05-24T12:09:02;102395.59;;;15.32;89.00
63006;BME280;53704;52.532;6.426;2023-05-24T12:11:31;102390.16;;;14.96;91.44
63006;BME280;53704;52.532;6.426;2023-05-24T12:13:58;102388.19;;;14.98;94.60
63006;BME280;53704;52.532;6.426;2023-05-24T12:16:23;102393.03;;;14.76;94.50
63006;BME280;53704;52.532;6.426;2023-05-24T12:18:51;102381.50;;;14.74;95.78
63006;BME280;53704;52.532;6.426;2023-05-24T12:21:17;102379.13;;;15.07;97.86
63006;BME280;53704;52.532;6.426;2023-05-24T12:23:46;102385.59;;;15.32;96.91
63006;BME280;53704;52.532;6.426;2023-05-24T12:26:17;102382.72;;;15.34;93.42
63006;BME280;53704;52.532;6.426;2023-05-24T12:28:47;102383.94;;;15.58;92.01
63006;BME280;53704;52.532;6.426;2023-05-24T12:31:17;102385.34;;;15.88;91.74
63006;BME280;53704;52.532;6.426;2023-05-24T12:33:43;102383.31;;;16.24;87.26
63006;BME280;53704;52.532;6.426;2023-05-24T12:36:12;102390.06;;;15.86;84.74
63006;BME280;53704;52.532;6.426;2023-05-24T12:38:57;102376.41;;;16.04;82.42
63006;BME280;53704;52.532;6.426;2023-05-24T12:41:38;102382.16;;;15.48;83.64
63006;BME280;53704;52.532;6.426;2023-05-24T12:44:27;102383.78;;;15.41;85.33
63006;BME280;53704;52.532;6.426;2023-05-24T12:46:54;102382.59;;;15.17;84.51
63006;BME280;53704;52.532;6.426;2023-05-24T12:49:24;102381.97;;;15.24;83.51
63006;BME280;53704;52.532;6.426;2023-05-24T12:51:50;102383.47;;;15.44;85.50
63006;BME280;53704;52.532;6.426;2023-05-24T12:54:24;102383.06;;;15.57;84.78
63006;BME280;53704;52.532;6.426;2023-05-24T12:56:50;102381.53;;;15.54;85.15
63006;BME280;53704;52.532;6.426;2023-05-24T12:59:16;102384.19;;;15.72;85.11
63006;BME280;53704;52.532;6.426;2023-05-24T13:01:42;102383.13;;;15.91;83.02